Terminal Aerodrome Forecast
Issued by NWS Des Moines, IA

Current Version | Previous Version | Text Only | Print | Product List | Glossary On
Versions: 1 2 3 4 5 6 7 8 9 10 11 12 13
000
FTUS43 KDMX 242336 AAB
TAFDSM
TAF AMD
KDSM 242336Z 2500/2524 31010G19KT P6SM SCT120
     FM250500 32008KT P6SM SKC=

USA.gov is the U.S. government's official web portal to all federal, state and local government web resources and services.